Time;durP1;ratioP1;P1;durP2;ratioP2;P2;SDS_P1;SDS_P2;PMS_P1;PMS_P2;Temp;Humidity;BMP_temperature;BMP_pressure;BME280_temperature;BME280_humidity;BME280_pressure;Samples;Min_cycle;Max_cycle;Signal;HPM_P1;HPM_P2
2023/03/20 00:01:43;;;;;;;5.05;1.60;;;;;;;;;;4938624;28;20383;-66
2023/03/20 00:04:11;;;;;;;5.15;1.50;;;;;;;;;;4942253;28;20031;-66
2023/03/20 00:06:39;;;;;;;3.55;1.13;;;;;;;;;;4936038;28;20058;-66
2023/03/20 00:09:07;;;;;;;4.45;1.50;;;;;;;;;;4936149;28;20166;-66
2023/03/20 00:11:36;;;;;;;4.60;1.50;;;;;;;;;;4940970;28;20034;-65
2023/03/20 00:14:09;;;;;;;4.22;1.40;;;;;;;;;;4942182;28;20110;-65
2023/03/20 00:16:40;;;;;;;3.10;1.20;;;;;;;;;;4940393;28;20540;-65
2023/03/20 00:19:16;;;;;;;4.80;1.40;;;;;;;;;;4936320;28;20034;-66
2023/03/20 00:21:45;;;;;;;3.65;1.30;;;;;;;;;;4933455;28;20569;-65
2023/03/20 00:24:13;;;;;;;3.45;1.15;;;;;;;;;;4921239;28;20026;-65
2023/03/20 00:26:40;;;;;;;3.85;1.33;;;;;;;;;;4942486;28;20402;-65
2023/03/20 00:29:10;;;;;;;3.95;1.15;;;;;;;;;;4941309;28;20126;-65
2023/03/20 00:31:39;;;;;;;4.90;1.60;;;;;;;;;;4935377;28;20036;-65
2023/03/20 00:34:13;;;;;;;5.85;2.17;;;;;;;;;;4936439;28;20422;-65
2023/03/20 00:36:39;;;;;;;6.35;2.80;;;;;;;;;;4916480;28;20090;-65
2023/03/20 00:39:06;;;;;;;6.38;2.30;;;;;;;;;;4940812;28;20038;-64
2023/03/20 00:41:38;;;;;;;6.00;2.40;;;;;;;;;;4940070;28;20286;-65
2023/03/20 00:44:23;;;;;;;3.88;1.55;;;;;;;;;;4936823;28;20034;-65
2023/03/20 00:47:01;;;;;;;3.97;1.13;;;;;;;;;;4928543;28;20035;-65
2023/03/20 00:49:31;;;;;;;3.65;1.10;;;;;;;;;;4938310;28;20444;-65
2023/03/20 00:51:58;;;;;;;3.70;1.15;;;;;;;;;;4941651;28;20034;-65
2023/03/20 00:54:25;;;;;;;4.85;1.38;;;;;;;;;;4938678;28;20114;-66
2023/03/20 00:56:56;;;;;;;3.63;1.05;;;;;;;;;;4940927;28;20024;-65
2023/03/20 00:59:25;;;;;;;4.00;0.90;;;;;;;;;;4942391;28;20042;-65
2023/03/20 01:01:52;;;;;;;3.00;1.00;;;;;;;;;;4924462;28;20062;-65
2023/03/20 01:04:20;;;;;;;2.65;0.90;;;;;;;;;;4940801;28;20031;-65
2023/03/20 01:06:48;;;;;;;2.80;0.85;;;;;;;;;;4938075;28;20359;-65
2023/03/20 01:09:15;;;;;;;3.95;0.95;;;;;;;;;;4923905;28;20023;-65
2023/03/20 01:11:44;;;;;;;2.85;0.90;;;;;;;;;;4930868;28;20054;-64
2023/03/20 01:14:15;;;;;;;4.57;1.10;;;;;;;;;;4942843;28;20078;-65
2023/03/20 01:16:44;;;;;;;4.40;0.90;;;;;;;;;;4940812;28;20944;-64
2023/03/20 01:19:15;;;;;;;2.28;0.80;;;;;;;;;;4939588;28;20027;-65
2023/03/20 01:21:41;;;;;;;3.90;0.80;;;;;;;;;;4940429;28;20472;-65
2023/03/20 01:24:09;;;;;;;4.93;1.23;;;;;;;;;;4942839;28;20066;-65
2023/03/20 01:26:42;;;;;;;3.38;1.02;;;;;;;;;;4937397;28;20039;-64
2023/03/20 01:29:17;;;;;;;2.80;0.90;;;;;;;;;;4938240;28;20525;-65
2023/03/20 01:31:44;;;;;;;3.38;0.98;;;;;;;;;;4937438;28;20423;-65
2023/03/20 01:34:11;;;;;;;3.78;1.00;;;;;;;;;;4938142;28;20030;-65
2023/03/20 01:36:38;;;;;;;5.57;1.10;;;;;;;;;;4936298;28;20153;-65
2023/03/20 01:39:05;;;;;;;3.38;1.13;;;;;;;;;;4936434;28;20077;-65
2023/03/20 01:41:33;;;;;;;7.65;1.60;;;;;;;;;;4936927;28;20672;-65
2023/03/20 01:44:17;;;;;;;3.25;1.20;;;;;;;;;;4940710;28;20038;-65
2023/03/20 01:46:45;;;;;;;4.88;1.27;;;;;;;;;;4902817;28;21252;-65
2023/03/20 01:49:24;;;;;;;4.50;1.30;;;;;;;;;;4920250;28;20419;-65
2023/03/20 01:51:52;;;;;;;5.65;1.50;;;;;;;;;;4923285;28;20045;-65
2023/03/20 01:54:34;;;;;;;4.90;1.50;;;;;;;;;;4940300;28;20332;-65
2023/03/20 01:57:22;;;;;;;4.78;1.45;;;;;;;;;;4940671;28;20039;-65
2023/03/20 01:59:49;;;;;;;;;;;;;;;;;;4934360;28;20355;-65
2023/03/20 02:02:19;;;;;;;3.88;1.20;;;;;;;;;;4939108;28;20356;-65
2023/03/20 02:04:48;;;;;;;4.07;1.27;;;;;;;;;;4937489;28;20031;-65
2023/03/20 02:07:17;;;;;;;3.22;1.00;;;;;;;;;;4935614;28;20500;-65
2023/03/20 02:09:45;;;;;;;5.15;1.20;;;;;;;;;;4938956;28;20038;-65
2023/03/20 02:12:12;;;;;;;5.40;1.35;;;;;;;;;;4942433;28;20031;-65
2023/03/20 02:14:40;;;;;;;4.35;1.00;;;;;;;;;;4933267;28;20102;-65
2023/03/20 02:17:08;;;;;;;3.83;1.10;;;;;;;;;;4940416;28;20023;-65
2023/03/20 02:19:53;;;;;;;5.53;1.25;;;;;;;;;;4936841;28;20540;-65
2023/03/20 02:22:38;;;;;;;4.45;1.00;;;;;;;;;;4944025;28;20408;-65
2023/03/20 02:25:25;;;;;;;5.68;1.20;;;;;;;;;;4943145;28;20703;-65
2023/03/20 02:28:06;;;;;;;3.70;1.00;;;;;;;;;;4938980;28;20041;-66
2023/03/20 02:30:52;;;;;;;3.17;0.98;;;;;;;;;;4938966;28;20038;-65
2023/03/20 02:33:37;;;;;;;5.15;1.25;;;;;;;;;;4924550;28;20563;-65
2023/03/20 02:36:22;;;;;;;5.72;1.10;;;;;;;;;;4933864;28;20630;-65
2023/03/20 02:38:57;;;;;;;3.28;1.05;;;;;;;;;;4930104;28;20035;-65
2023/03/20 02:41:42;;;;;;;3.63;0.95;;;;;;;;;;4937686;28;20098;-65
2023/03/20 02:44:15;;;;;;;3.15;1.10;;;;;;;;;;4936422;28;20059;-65
2023/03/20 02:47:02;;;;;;;3.83;1.15;;;;;;;;;;4937362;28;20034;-65
2023/03/20 02:49:35;;;;;;;2.57;0.80;;;;;;;;;;4934654;28;20026;-65
2023/03/20 02:52:14;;;;;;;2.80;0.82;;;;;;;;;;4944268;28;20710;-65
2023/03/20 02:54:49;;;;;;;3.83;0.90;;;;;;;;;;4937500;28;20084;-65
2023/03/20 02:57:34;;;;;;;3.30;0.85;;;;;;;;;;4941431;28;20077;-65
2023/03/20 03:00:08;;;;;;;3.15;1.00;;;;;;;;;;4935559;28;20039;-65
2023/03/20 03:02:38;;;;;;;4.22;0.98;;;;;;;;;;4934397;28;20497;-65
2023/03/20 03:05:13;;;;;;;3.42;0.90;;;;;;;;;;4922428;28;20027;-65
2023/03/20 03:07:41;;;;;;;4.22;1.00;;;;;;;;;;4931985;28;20035;-65
2023/03/20 03:10:19;;;;;;;2.85;0.90;;;;;;;;;;4934362;28;20206;-65
2023/03/20 03:12:47;;;;;;;5.53;1.00;;;;;;;;;;4913038;28;20038;-65
2023/03/20 03:15:22;;;;;;;3.33;0.90;;;;;;;;;;4926457;28;20552;-65
2023/03/20 03:17:50;;;;;;;4.60;0.90;;;;;;;;;;4939841;28;20027;-65
2023/03/20 03:20:44;;;;;;;5.82;1.00;;;;;;;;;;4946566;28;20552;-65
2023/03/20 03:23:18;;;;;;;4.45;1.10;;;;;;;;;;4939211;28;20074;-65
2023/03/20 03:25:46;;;;;;;2.53;0.80;;;;;;;;;;4925360;28;21988;-66
2023/03/20 03:28:47;;;;;;;3.40;1.08;;;;;;;;;;4913475;28;20161;-65
2023/03/20 03:31:16;;;;;;;5.35;1.08;;;;;;;;;;4900793;29;20058;-65
2023/03/20 03:33:46;;;;;;;4.18;0.98;;;;;;;;;;4895910;29;20483;-65
2023/03/20 03:36:30;;;;;;;4.53;1.00;;;;;;;;;;4881531;29;20039;-65
2023/03/20 03:38:59;;;;;;;2.33;0.90;;;;;;;;;;4903702;29;20088;-65
2023/03/20 03:41:41;;;;;;;4.25;1.00;;;;;;;;;;4900857;29;20063;-66
2023/03/20 03:44:33;;;;;;;4.38;0.90;;;;;;;;;;4904942;29;20036;-66
2023/03/20 03:47:06;;;;;;;4.32;1.40;;;;;;;;;;4905495;29;20537;-66
2023/03/20 03:49:36;;;;;;;6.03;1.90;;;;;;;;;;4898525;29;20042;-66
2023/03/20 03:52:07;;;;;;;6.70;2.30;;;;;;;;;;4900288;29;20051;-66
2023/03/20 03:54:45;;;;;;;6.22;2.08;;;;;;;;;;4902044;29;20070;-66
2023/03/20 03:57:15;;;;;;;6.07;1.73;;;;;;;;;;4906381;29;20290;-65
2023/03/20 03:59:45;;;;;;;5.95;1.60;;;;;;;;;;4896671;29;20574;-66
2023/03/20 04:02:12;;;;;;;5.18;1.60;;;;;;;;;;4877796;29;20020;-65
2023/03/20 04:04:42;;;;;;;4.75;1.30;;;;;;;;;;4906559;28;20082;-66
2023/03/20 04:07:08;;;;;;;4.10;1.10;;;;;;;;;;4943185;28;20051;-65
2023/03/20 04:09:36;;;;;;;6.28;1.27;;;;;;;;;;4937961;28;20442;-65
2023/03/20 04:12:03;;;;;;;3.85;1.00;;;;;;;;;;4936885;28;20474;-65
2023/03/20 04:14:31;;;;;;;3.75;1.15;;;;;;;;;;4918136;28;20042;-65
2023/03/20 04:16:58;;;;;;;3.15;0.90;;;;;;;;;;4944255;28;20022;-65
2023/03/20 04:19:26;;;;;;;2.45;1.00;;;;;;;;;;4938071;28;20035;-66
2023/03/20 04:21:54;;;;;;;4.32;1.00;;;;;;;;;;4941704;28;20027;-66
2023/03/20 04:24:21;;;;;;;4.03;1.08;;;;;;;;;;4940221;28;20469;-64
2023/03/20 04:26:48;;;;;;;4.18;1.27;;;;;;;;;;4922381;28;20034;-65
2023/03/20 04:29:16;;;;;;;4.15;1.33;;;;;;;;;;4939042;28;20386;-64
2023/03/20 04:31:43;;;;;;;3.85;1.17;;;;;;;;;;4938940;28;20031;-64
2023/03/20 04:34:11;;;;;;;4.00;1.10;;;;;;;;;;4938727;28;20033;-64
2023/03/20 04:36:37;;;;;;;2.83;1.05;;;;;;;;;;4936480;28;20030;-65
2023/03/20 04:39:04;;;;;;;3.97;1.00;;;;;;;;;;4924562;28;20031;-64
2023/03/20 04:41:32;;;;;;;3.22;1.10;;;;;;;;;;4919171;28;20083;-65
2023/03/20 04:43:58;;;;;;;3.35;1.10;;;;;;;;;;4922479;28;20026;-64
2023/03/20 04:46:26;;;;;;;4.40;1.13;;;;;;;;;;4925646;28;20056;-65
2023/03/20 04:48:53;;;;;;;5.18;1.30;;;;;;;;;;4943012;28;20370;-65
2023/03/20 04:51:21;;;;;;;3.80;1.10;;;;;;;;;;4943983;28;20126;-64
2023/03/20 04:53:49;;;;;;;4.40;1.40;;;;;;;;;;4937721;28;20070;-64
2023/03/20 04:56:18;;;;;;;4.35;1.40;;;;;;;;;;4945319;28;20031;-64
2023/03/20 04:58:47;;;;;;;5.78;1.58;;;;;;;;;;4939716;28;20045;-65
2023/03/20 05:01:15;;;;;;;5.35;1.55;;;;;;;;;;4934575;28;20103;-64
2023/03/20 05:03:44;;;;;;;6.22;1.40;;;;;;;;;;4905432;28;20973;-64
2023/03/20 05:06:11;;;;;;;6.20;1.20;;;;;;;;;;4939629;28;20054;-64
2023/03/20 05:08:37;;;;;;;4.43;1.17;;;;;;;;;;4932949;28;20272;-64
2023/03/20 05:11:07;;;;;;;5.45;1.40;;;;;;;;;;4937774;28;20086;-65
2023/03/20 05:13:35;;;;;;;5.18;1.25;;;;;;;;;;4940062;28;20237;-65
2023/03/20 05:16:03;;;;;;;4.22;1.20;;;;;;;;;;4943950;28;20022;-65
2023/03/20 05:18:30;;;;;;;4.95;1.40;;;;;;;;;;4941747;28;20158;-65
2023/03/20 05:20:58;;;;;;;8.10;1.50;;;;;;;;;;4937595;28;20023;-65
2023/03/20 05:23:26;;;;;;;3.92;1.20;;;;;;;;;;4940013;28;20430;-65
2023/03/20 05:25:54;;;;;;;4.32;1.27;;;;;;;;;;4937941;28;20842;-65
2023/03/20 05:28:23;;;;;;;5.43;1.50;;;;;;;;;;4937958;28;20045;-64
2023/03/20 05:30:52;;;;;;;5.18;1.40;;;;;;;;;;4939033;28;20031;-65
2023/03/20 05:33:19;;;;;;;4.18;1.30;;;;;;;;;;4936815;28;20503;-65
2023/03/20 05:35:47;;;;;;;5.53;1.55;;;;;;;;;;4934450;28;20651;-65
2023/03/20 05:38:16;;;;;;;6.18;1.58;;;;;;;;;;4937033;28;20046;-65
2023/03/20 05:40:45;;;;;;;5.95;1.85;;;;;;;;;;4935903;28;20470;-65
2023/03/20 05:43:12;;;;;;;6.50;1.60;;;;;;;;;;4938261;28;20339;-65
2023/03/20 05:45:38;;;;;;;4.38;1.30;;;;;;;;;;4934466;28;20039;-65
2023/03/20 05:48:09;;;;;;;5.15;1.45;;;;;;;;;;4933164;28;20383;-65
2023/03/20 05:50:38;;;;;;;5.15;1.40;;;;;;;;;;4935544;28;20417;-65
2023/03/20 05:53:06;;;;;;;8.52;2.80;;;;;;;;;;4921225;28;20649;-65
2023/03/20 05:55:34;;;;;;;7.95;2.28;;;;;;;;;;4919521;28;20574;-65
2023/03/20 05:58:01;;;;;;;6.47;2.17;;;;;;;;;;4936988;28;20028;-64
2023/03/20 06:00:28;;;;;;;6.15;1.67;;;;;;;;;;4915877;28;20042;-65
2023/03/20 06:02:57;;;;;;;6.22;1.52;;;;;;;;;;4924822;28;20093;-65
2023/03/20 06:05:24;;;;;;;4.32;1.20;;;;;;;;;;4940731;28;20050;-66
2023/03/20 06:07:52;;;;;;;7.32;1.58;;;;;;;;;;4909749;28;20553;-65
2023/03/20 06:10:20;;;;;;;4.65;1.30;;;;;;;;;;4936667;28;20110;-66
2023/03/20 06:12:47;;;;;;;8.40;1.95;;;;;;;;;;4921553;28;20062;-65
2023/03/20 06:15:19;;;;;;;8.13;1.92;;;;;;;;;;4937331;28;20256;-65
2023/03/20 06:17:47;;;;;;;6.85;1.77;;;;;;;;;;4913711;28;20039;-64
2023/03/20 06:20:15;;;;;;;6.65;1.50;;;;;;;;;;4930257;28;20045;-65
2023/03/20 06:22:42;;;;;;;4.60;1.30;;;;;;;;;;4933409;28;20043;-66
2023/03/20 06:25:12;;;;;;;5.05;1.30;;;;;;;;;;4938474;28;20038;-65
2023/03/20 06:27:40;;;;;;;6.57;1.40;;;;;;;;;;4932663;28;20031;-66
2023/03/20 06:30:12;;;;;;;6.20;1.38;;;;;;;;;;4937410;28;20030;-66
2023/03/20 06:32:40;;;;;;;7.97;1.65;;;;;;;;;;4932144;28;20034;-66
2023/03/20 06:35:08;;;;;;;7.03;1.35;;;;;;;;;;4940077;28;20194;-65
2023/03/20 06:37:36;;;;;;;5.25;1.42;;;;;;;;;;4917081;28;20374;-64
2023/03/20 06:40:06;;;;;;;5.88;1.40;;;;;;;;;;4938854;28;20027;-63
2023/03/20 06:42:34;;;;;;;7.60;1.30;;;;;;;;;;4934268;28;20030;-66
2023/03/20 06:45:02;;;;;;;7.85;1.38;;;;;;;;;;4937094;28;20756;-66
2023/03/20 06:47:29;;;;;;;6.90;1.55;;;;;;;;;;4937354;28;20125;-66
2023/03/20 06:49:58;;;;;;;7.03;1.40;;;;;;;;;;4939455;28;20042;-66
2023/03/20 06:52:25;;;;;;;4.18;1.35;;;;;;;;;;4934630;28;20929;-64
2023/03/20 06:54:53;;;;;;;6.40;1.40;;;;;;;;;;4935818;28;20034;-65
2023/03/20 06:57:21;;;;;;;5.13;1.45;;;;;;;;;;4936484;28;20038;-65
2023/03/20 06:59:48;;;;;;;8.82;1.65;;;;;;;;;;4930898;28;20141;-65
2023/03/20 07:02:15;;;;;;;7.65;1.55;;;;;;;;;;4940261;28;20031;-65
2023/03/20 07:04:44;;;;;;;6.43;2.17;;;;;;;;;;4933765;28;20033;-65
2023/03/20 07:07:12;;;;;;;5.43;1.80;;;;;;;;;;4940553;28;20030;-67
2023/03/20 07:09:42;;;;;;;4.50;1.58;;;;;;;;;;4937130;28;20039;-65
2023/03/20 07:12:19;;;;;;;5.03;1.58;;;;;;;;;;4936464;28;20054;-65
2023/03/20 07:14:47;;;;;;;9.57;2.17;;;;;;;;;;4936550;28;20030;-66
2023/03/20 07:17:14;;;;;;;6.07;1.67;;;;;;;;;;4935085;28;20142;-66
2023/03/20 07:19:44;;;;;;;9.48;2.40;;;;;;;;;;4934209;28;20043;-65
2023/03/20 07:22:18;;;;;;;10.82;2.90;;;;;;;;;;4933976;28;20031;-65
2023/03/20 07:24:46;;;;;;;12.52;3.20;;;;;;;;;;4923019;28;24477;-65
2023/03/20 07:27:15;;;;;;;12.48;4.60;;;;;;;;;;4938170;28;20035;-66
2023/03/20 07:29:41;;;;;;;13.95;5.28;;;;;;;;;;4937159;28;20073;-65
2023/03/20 07:32:10;;;;;;;12.07;5.10;;;;;;;;;;4938915;28;20038;-65
2023/03/20 07:34:37;;;;;;;15.60;4.70;;;;;;;;;;4932805;28;20038;-64
2023/03/20 07:37:06;;;;;;;11.82;4.35;;;;;;;;;;4937146;28;20030;-65
2023/03/20 07:39:33;;;;;;;12.88;5.35;;;;;;;;;;4936232;28;20478;-65
2023/03/20 07:42:01;;;;;;;13.25;4.10;;;;;;;;;;4938265;28;20034;-65
2023/03/20 07:44:28;;;;;;;12.57;3.80;;;;;;;;;;4938125;28;20450;-65
2023/03/20 07:46:57;;;;;;;11.35;3.75;;;;;;;;;;4934019;28;20098;-66
2023/03/20 07:49:25;;;;;;;10.85;4.07;;;;;;;;;;4937492;28;20042;-65
2023/03/20 07:51:55;;;;;;;17.50;3.83;;;;;;;;;;4934589;28;20057;-65
2023/03/20 07:54:26;;;;;;;10.38;3.25;;;;;;;;;;4935977;28;20271;-65
2023/03/20 07:56:56;;;;;;;10.98;3.20;;;;;;;;;;4938444;28;20109;-65
2023/03/20 07:59:25;;;;;;;10.15;3.38;;;;;;;;;;4936967;28;20497;-65
2023/03/20 08:01:55;;;;;;;11.18;3.20;;;;;;;;;;4938236;28;20791;-65
2023/03/20 08:04:25;;;;;;;7.97;2.80;;;;;;;;;;4940196;28;20031;-65
2023/03/20 08:06:53;;;;;;;10.98;3.00;;;;;;;;;;4938588;28;20379;-65
2023/03/20 08:09:21;;;;;;;8.43;1.80;;;;;;;;;;4940189;28;20172;-65
2023/03/20 08:11:51;;;;;;;6.82;2.00;;;;;;;;;;4924162;28;20514;-66
2023/03/20 08:14:18;;;;;;;6.93;1.98;;;;;;;;;;4940271;28;20141;-66
2023/03/20 08:16:44;;;;;;;15.93;2.13;;;;;;;;;;4935474;28;20042;-66
2023/03/20 08:19:12;;;;;;;;;;;;;;;;;;4925864;28;20785;-65
2023/03/20 08:21:41;;;;;;;8.73;1.77;;;;;;;;;;4935575;28;19918;-66
2023/03/20 08:24:09;;;;;;;5.85;1.45;;;;;;;;;;4922041;28;20058;-65
2023/03/20 08:26:38;;;;;;;8.25;1.70;;;;;;;;;;4932254;28;20042;-66
2023/03/20 08:29:04;;;;;;;8.32;1.75;;;;;;;;;;4921615;28;20054;-65
2023/03/20 08:31:33;;;;;;;6.30;1.30;;;;;;;;;;4939075;28;20472;-66
2023/03/20 08:34:00;;;;;;;7.10;1.92;;;;;;;;;;4938986;28;20478;-66
2023/03/20 08:36:28;;;;;;;5.78;1.35;;;;;;;;;;4922694;28;20035;-66
2023/03/20 08:38:55;;;;;;;6.88;1.58;;;;;;;;;;4939115;28;20026;-65
2023/03/20 08:41:24;;;;;;;5.80;1.50;;;;;;;;;;4940943;28;20082;-65
2023/03/20 08:43:51;;;;;;;10.30;3.22;;;;;;;;;;4937396;28;20114;-65
2023/03/20 08:46:19;;;;;;;13.52;3.92;;;;;;;;;;4939099;28;20042;-66
2023/03/20 08:48:46;;;;;;;11.70;4.38;;;;;;;;;;4923177;28;21046;-66
2023/03/20 08:51:13;;;;;;;10.20;3.50;;;;;;;;;;4941082;28;20272;-66
2023/03/20 08:53:42;;;;;;;8.50;3.75;;;;;;;;;;4935614;28;20037;-66
2023/03/20 08:56:11;;;;;;;11.25;5.65;;;;;;;;;;4937746;28;20031;-66
2023/03/20 08:58:40;;;;;;;14.18;8.10;;;;;;;;;;4936133;28;20023;-66
2023/03/20 09:01:08;;;;;;;13.93;7.97;;;;;;;;;;4941325;28;20023;-66
2023/03/20 09:03:35;;;;;;;16.67;9.43;;;;;;;;;;4936547;28;20039;-66
2023/03/20 09:06:08;;;;;;;17.92;10.43;;;;;;;;;;4938413;28;20035;-66
2023/03/20 09:08:37;;;;;;;15.15;7.97;;;;;;;;;;4917663;28;20892;-66
2023/03/20 09:11:07;;;;;;;9.35;4.18;;;;;;;;;;4940089;28;20045;-66
2023/03/20 09:13:35;;;;;;;10.23;4.30;;;;;;;;;;4923757;28;20049;-66
2023/03/20 09:16:02;;;;;;;9.15;3.10;;;;;;;;;;4935061;28;20035;-66
2023/03/20 09:18:30;;;;;;;10.13;2.35;;;;;;;;;;4906578;28;20110;-66
2023/03/20 09:20:58;;;;;;;6.32;1.80;;;;;;;;;;4942483;28;20556;-66
2023/03/20 09:23:26;;;;;;;5.53;1.67;;;;;;;;;;4923446;28;20039;-69
2023/03/20 09:25:55;;;;;;;4.53;1.30;;;;;;;;;;4939077;28;20043;-66
2023/03/20 09:28:22;;;;;;;3.78;1.25;;;;;;;;;;4940927;28;20489;-66
2023/03/20 09:30:54;;;;;;;7.20;1.58;;;;;;;;;;4935066;28;20755;-66
2023/03/20 09:33:23;;;;;;;5.50;1.50;;;;;;;;;;4920348;28;20045;-65
2023/03/20 09:36:00;;;;;;;4.80;0.90;;;;;;;;;;4938483;28;20054;-66
2023/03/20 09:38:26;;;;;;;4.10;0.98;;;;;;;;;;4935670;28;20105;-67
2023/03/20 09:41:04;;;;;;;4.43;1.00;;;;;;;;;;4938696;28;20417;-66
2023/03/20 09:43:50;;;;;;;4.50;1.23;;;;;;;;;;4932447;28;20026;-66
2023/03/20 09:46:36;;;;;;;5.03;1.60;;;;;;;;;;4917353;28;20039;-65
2023/03/20 09:49:20;;;;;;;6.50;1.83;;;;;;;;;;4940204;28;20386;-66
2023/03/20 09:52:00;;;;;;;4.80;1.20;;;;;;;;;;4918922;28;20042;-65
2023/03/20 09:54:44;;;;;;;4.15;0.90;;;;;;;;;;4917838;28;20472;-65
2023/03/20 09:57:17;;;;;;;5.20;1.30;;;;;;;;;;4935415;28;20153;-64
2023/03/20 09:59:46;;;;;;;6.07;1.33;;;;;;;;;;4935692;28;20348;-64
2023/03/20 10:02:15;;;;;;;5.78;1.58;;;;;;;;;;4923064;28;20035;-64
2023/03/20 10:04:44;;;;;;;7.35;1.50;;;;;;;;;;4923155;28;20347;-65
2023/03/20 10:07:14;;;;;;;6.82;2.00;;;;;;;;;;4939389;28;20497;-65
2023/03/20 10:09:44;;;;;;;5.20;1.75;;;;;;;;;;4939231;28;20121;-69
2023/03/20 10:12:34;;;;;;;5.85;1.73;;;;;;;;;;4938190;28;20383;-68
2023/03/20 10:15:04;;;;;;;6.50;2.10;;;;;;;;;;4922690;28;20818;-69
2023/03/20 10:17:39;;;;;;;6.07;1.88;;;;;;;;;;4934850;28;20047;-68
2023/03/20 10:20:12;;;;;;;4.45;1.35;;;;;;;;;;4936264;28;20254;-70
2023/03/20 10:22:43;;;;;;;5.13;1.63;;;;;;;;;;4933593;28;20047;-69
2023/03/20 10:25:31;;;;;;;5.72;1.70;;;;;;;;;;4922073;28;20031;-70
2023/03/20 10:28:11;;;;;;;4.50;1.52;;;;;;;;;;4920082;28;20171;-70
2023/03/20 10:30:55;;;;;;;8.63;1.83;;;;;;;;;;4932471;28;20224;-70
2023/03/20 10:33:40;;;;;;;5.78;1.73;;;;;;;;;;4939333;28;20114;-70
2023/03/20 10:36:27;;;;;;;7.00;2.72;;;;;;;;;;4938367;28;20429;-69
2023/03/20 10:39:13;;;;;;;5.28;1.45;;;;;;;;;;4936404;28;20023;-70
2023/03/20 10:41:39;;;;;;;;;;;;;;;;;;4929208;28;20033;-70
2023/03/20 10:44:10;;;;;;;4.82;1.45;;;;;;;;;;4936703;28;19915;-70
2023/03/20 10:46:55;;;;;;;6.43;1.40;;;;;;;;;;4916407;28;20572;-70
2023/03/20 10:49:40;;;;;;;4.22;1.20;;;;;;;;;;4940454;28;20299;-69
2023/03/20 10:52:26;;;;;;;5.75;1.23;;;;;;;;;;4934181;28;20867;-70
2023/03/20 10:55:14;;;;;;;5.88;1.60;;;;;;;;;;4923289;28;20039;-70
2023/03/20 10:57:53;;;;;;;6.07;1.60;;;;;;;;;;4927035;28;20054;-69
2023/03/20 11:00:26;;;;;;;5.28;1.20;;;;;;;;;;4918354;28;20154;-68
2023/03/20 11:02:55;;;;;;;4.50;1.10;;;;;;;;;;4922691;28;20532;-68
2023/03/20 11:05:35;;;;;;;4.78;1.10;;;;;;;;;;4900875;29;20079;-69
2023/03/20 11:08:12;;;;;;;4.10;1.00;;;;;;;;;;4901690;29;20550;-69
2023/03/20 11:10:42;;;;;;;2.78;0.85;;;;;;;;;;4901158;29;20472;-69
2023/03/20 11:13:28;;;;;;;3.75;1.00;;;;;;;;;;4883726;29;20048;-69
2023/03/20 11:15:55;;;;;;;5.57;1.00;;;;;;;;;;4905100;29;20588;-70
2023/03/20 11:18:26;;;;;;;7.43;1.10;;;;;;;;;;4903725;29;20343;-69
2023/03/20 11:20:54;;;;;;;5.72;1.27;;;;;;;;;;4886789;29;20223;-69
2023/03/20 11:23:27;;;;;;;5.45;1.40;;;;;;;;;;4888493;29;20051;-70
2023/03/20 11:26:18;;;;;;;5.55;1.02;;;;;;;;;;4885534;29;20040;-69
2023/03/20 11:28:57;;;;;;;5.07;0.90;;;;;;;;;;4898836;29;20036;-69
2023/03/20 11:31:42;;;;;;;3.22;0.98;;;;;;;;;;4899488;29;20578;-69
2023/03/20 11:34:15;;;;;;;3.85;1.10;;;;;;;;;;4880735;28;20209;-69
2023/03/20 11:37:10;;;;;;;4.68;1.00;;;;;;;;;;4896353;29;20349;-70
2023/03/20 11:39:37;;;;;;;3.97;0.80;;;;;;;;;;4844323;29;20041;-70
2023/03/20 11:42:21;;;;;;;4.00;0.90;;;;;;;;;;4846170;29;20650;-70
2023/03/20 11:44:56;;;;;;;5.55;0.70;;;;;;;;;;4845077;29;20557;-69
2023/03/20 11:47:25;;;;;;;3.95;0.98;;;;;;;;;;4848311;29;20049;-69
2023/03/20 11:49:57;;;;;;;2.97;0.70;;;;;;;;;;4847406;29;20049;-69
2023/03/20 11:52:44;;;;;;;2.65;0.70;;;;;;;;;;4848985;29;20563;-70
2023/03/20 11:55:26;;;;;;;3.45;0.75;;;;;;;;;;4849665;29;20267;-70
2023/03/20 11:57:58;;;;;;;5.35;1.27;;;;;;;;;;4864477;29;20045;-70
2023/03/20 12:00:30;;;;;;;4.07;0.90;;;;;;;;;;4863598;29;20044;-70
2023/03/20 12:02:58;;;;;;;4.22;0.90;;;;;;;;;;4866006;29;20100;-70
2023/03/20 12:05:36;;;;;;;4.53;1.00;;;;;;;;;;4861632;29;20260;-70
2023/03/20 12:08:05;;;;;;;3.28;0.90;;;;;;;;;;4866182;29;20510;-70
2023/03/20 12:10:35;;;;;;;5.90;1.02;;;;;;;;;;4844717;29;20049;-69
2023/03/20 12:13:15;;;;;;;3.65;0.80;;;;;;;;;;4868060;29;20489;-70
2023/03/20 12:15:46;;;;;;;3.95;1.00;;;;;;;;;;4876347;28;20053;-69
2023/03/20 12:18:30;;;;;;;4.65;0.82;;;;;;;;;;4941139;28;20026;-70
2023/03/20 12:20:59;;;;;;;4.00;0.80;;;;;;;;;;4938762;28;20378;-70
2023/03/20 12:23:51;;;;;;;2.45;0.70;;;;;;;;;;4938910;28;20089;-69
2023/03/20 12:26:37;;;;;;;2.33;0.60;;;;;;;;;;4937587;28;20045;-69
2023/03/20 12:29:21;;;;;;;2.53;0.75;;;;;;;;;;4937970;28;20026;-70
2023/03/20 12:32:07;;;;;;;4.55;0.70;;;;;;;;;;4940801;28;20090;-69
2023/03/20 12:34:40;;;;;;;3.60;0.80;;;;;;;;;;4937460;28;20053;-68
2023/03/20 12:37:12;;;;;;;3.38;0.82;;;;;;;;;;4940732;28;20046;-69
2023/03/20 12:39:48;;;;;;;5.10;0.70;;;;;;;;;;4935795;28;20038;-69
2023/03/20 12:42:32;;;;;;;3.42;0.60;;;;;;;;;;4940422;28;20027;-69
2023/03/20 12:45:05;;;;;;;3.92;0.60;;;;;;;;;;4936081;28;20485;-69
2023/03/20 12:47:51;;;;;;;4.30;0.80;;;;;;;;;;4934593;28;20155;-70
2023/03/20 12:50:27;;;;;;;5.25;0.93;;;;;;;;;;4937462;28;20429;-69
2023/03/20 12:53:15;;;;;;;1.95;0.65;;;;;;;;;;4936724;28;20125;-68
2023/03/20 12:55:57;;;;;;;4.05;0.95;;;;;;;;;;4936932;28;20037;-70
2023/03/20 12:58:25;;;;;;;6.00;1.20;;;;;;;;;;4937349;28;20074;-70
2023/03/20 13:00:57;;;;;;;2.90;0.90;;;;;;;;;;4940273;28;20548;-70
2023/03/20 13:03:43;;;;;;;5.45;0.90;;;;;;;;;;4940034;28;20046;-70
2023/03/20 13:06:29;;;;;;;5.20;0.88;;;;;;;;;;4943749;28;20026;-70
2023/03/20 13:08:58;;;;;;;3.15;0.98;;;;;;;;;;4938665;28;20034;-70
2023/03/20 13:11:52;;;;;;;3.50;0.90;;;;;;;;;;4937942;28;20051;-70
2023/03/20 13:14:38;;;;;;;1.70;0.60;;;;;;;;;;4942545;28;20063;-70
2023/03/20 13:17:05;;;;;;;;;;;;;;;;;;4938261;28;20031;-70
2023/03/20 13:19:48;;;;;;;4.93;0.85;;;;;;;;;;4936031;28;20304;-70
2023/03/20 13:22:31;;;;;;;5.35;0.70;;;;;;;;;;4927604;28;20158;-70
2023/03/20 13:25:13;;;;;;;4.75;0.60;;;;;;;;;;4921674;28;20355;-70
2023/03/20 13:28:05;;;;;;;3.30;0.80;;;;;;;;;;4921786;28;20225;-70
2023/03/20 13:30:43;;;;;;;2.53;0.70;;;;;;;;;;4931860;28;20043;-70
2023/03/20 13:33:29;;;;;;;4.40;0.77;;;;;;;;;;4927191;28;20042;-71
2023/03/20 13:36:14;;;;;;;3.00;0.95;;;;;;;;;;4929787;28;20041;-70
2023/03/20 13:38:58;;;;;;;7.05;0.82;;;;;;;;;;4919918;28;20035;-68
2023/03/20 13:41:27;;;;;;;6.53;1.20;;;;;;;;;;4940190;28;20550;-70
2023/03/20 13:44:00;;;;;;;2.22;0.60;;;;;;;;;;4924377;28;20038;-70
2023/03/20 13:46:45;;;;;;;4.75;1.00;;;;;;;;;;4932196;28;20452;-70
2023/03/20 13:49:39;;;;;;;3.15;0.95;;;;;;;;;;4919295;28;20743;-69
2023/03/20 13:52:18;;;;;;;3.63;0.90;;;;;;;;;;4932559;28;20049;-69
2023/03/20 13:55:10;;;;;;;6.28;1.20;;;;;;;;;;4937970;28;20030;-69
2023/03/20 13:57:51;;;;;;;6.50;0.90;;;;;;;;;;4935255;28;20027;-68
2023/03/20 14:00:27;;;;;;;3.92;0.80;;;;;;;;;;4937195;28;20659;-69
2023/03/20 14:03:13;;;;;;;5.22;1.10;;;;;;;;;;4939187;28;20567;-68
2023/03/20 14:05:44;;;;;;;3.22;0.70;;;;;;;;;;4937978;28;20039;-70
2023/03/20 14:08:33;;;;;;;3.22;0.73;;;;;;;;;;4940528;28;20109;-69
2023/03/20 14:11:05;;;;;;;2.70;0.60;;;;;;;;;;4936921;28;20030;-69
2023/03/20 14:13:32;;;;;;;4.38;0.55;;;;;;;;;;4919050;28;20039;-68
2023/03/20 14:16:01;;;;;;;2.20;0.57;;;;;;;;;;4919198;28;20086;-68
2023/03/20 14:18:30;;;;;;;6.03;0.68;;;;;;;;;;4899731;28;20046;-68
2023/03/20 14:21:02;;;;;;;4.20;0.70;;;;;;;;;;4921290;28;20584;-68
2023/03/20 14:23:49;;;;;;;4.30;0.60;;;;;;;;;;4917685;28;20077;-70
2023/03/20 14:26:27;;;;;;;2.55;0.68;;;;;;;;;;4899405;28;20058;-69
2023/03/20 14:29:01;;;;;;;3.38;0.80;;;;;;;;;;4900646;28;20085;-69
2023/03/20 14:31:33;;;;;;;4.07;0.90;;;;;;;;;;4915973;28;20344;-70
2023/03/20 14:34:08;;;;;;;2.78;0.80;;;;;;;;;;4916350;28;21000;-68
2023/03/20 14:36:54;;;;;;;4.22;1.00;;;;;;;;;;4900624;28;20082;-69
2023/03/20 14:39:40;;;;;;;3.55;0.88;;;;;;;;;;4918323;28;20035;-70
2023/03/20 14:42:20;;;;;;;2.80;0.60;;;;;;;;;;4916879;28;20493;-69
2023/03/20 14:44:55;;;;;;;2.95;0.80;;;;;;;;;;4912746;28;20043;-70
2023/03/20 14:47:40;;;;;;;4.07;0.70;;;;;;;;;;4899008;29;20471;-69
2023/03/20 14:50:17;;;;;;;3.20;0.77;;;;;;;;;;4919778;28;20294;-69
2023/03/20 14:52:47;;;;;;;4.00;0.60;;;;;;;;;;4909128;28;20032;-70
2023/03/20 14:55:29;;;;;;;4.78;0.90;;;;;;;;;;4917067;28;20032;-69
2023/03/20 14:57:57;;;;;;;5.47;0.88;;;;;;;;;;4916710;28;20483;-69
2023/03/20 15:00:28;;;;;;;4.18;0.82;;;;;;;;;;4902973;28;20290;-69
2023/03/20 15:03:16;;;;;;;4.22;0.80;;;;;;;;;;4907999;28;20039;-69
2023/03/20 15:05:45;;;;;;;4.18;1.00;;;;;;;;;;4915975;28;20042;-69
2023/03/20 15:08:23;;;;;;;5.13;1.00;;;;;;;;;;4917595;28;20096;-69
2023/03/20 15:10:52;;;;;;;4.22;0.85;;;;;;;;;;4918286;28;20225;-71
2023/03/20 15:13:20;;;;;;;3.65;0.80;;;;;;;;;;4923289;28;20150;-69
2023/03/20 15:16:01;;;;;;;5.32;0.95;;;;;;;;;;4938365;28;20038;-70
2023/03/20 15:18:27;;;;;;;4.43;0.80;;;;;;;;;;4935903;28;20344;-70